createdAt,value
2022-09-09T00:02:43.382Z,100497.73
2022-09-09T00:06:30.622Z,100506.57
2022-09-09T00:09:39.488Z,100504.13
2022-09-09T00:13:04.531Z,100507.02
2022-09-09T00:16:27.231Z,100499.79
2022-09-09T00:19:50.709Z,100504.66
2022-09-09T00:23:00.429Z,100503.05
2022-09-09T00:26:26.575Z,100509.44
2022-09-09T00:29:51.529Z,100509.64
2022-09-09T00:32:57.108Z,100507.83
2022-09-09T00:36:16.061Z,100510.03
2022-09-09T00:39:24.606Z,100512.39
2022-09-09T00:42:44.329Z,100509.60
2022-09-09T00:46:18.727Z,100505.02
2022-09-09T00:49:59.306Z,100501.10
2022-09-09T00:53:30.609Z,100508.22
2022-09-09T00:56:38.810Z,100511.20
2022-09-09T01:00:11.422Z,100512.39
2022-09-09T01:03:53.764Z,100510.47
2022-09-09T01:07:00.199Z,100507.92
2022-09-09T01:10:18.248Z,100502.38
2022-09-09T01:13:29.043Z,100501.98
2022-09-09T01:16:37.667Z,100499.19
2022-09-09T01:20:21.173Z,100492.20
2022-09-09T01:23:54.754Z,100500.98
2022-09-09T01:27:07.392Z,100501.39
2022-09-09T01:30:13.202Z,100502.02
2022-09-09T01:33:18.983Z,100497.16
2022-09-09T01:36:37.727Z,100500.01
2022-09-09T01:39:43.537Z,100500.63
2022-09-09T01:42:49.913Z,100508.02
2022-09-09T01:45:55.828Z,100507.88
2022-09-09T01:49:02.845Z,100519.84
2022-09-09T01:52:11.668Z,100525.83
2022-09-09T01:55:18.100Z,100521.38
2022-09-09T01:58:52.168Z,100521.31
2022-09-09T02:02:21.363Z,100522.95
2022-09-09T02:05:53.258Z,100520.41
2022-09-09T02:09:04.923Z,100528.57
2022-09-09T02:12:28.309Z,100524.75
2022-09-09T02:15:53.103Z,100523.39
2022-09-09T02:19:06.736Z,100529.14
2022-09-09T02:22:15.522Z,100529.14
2022-09-09T02:25:24.063Z,100531.80
2022-09-09T02:28:31.827Z,100531.75
2022-09-09T02:31:38.847Z,100526.23
2022-09-09T02:34:47.903Z,100532.89
2022-09-09T02:37:55.527Z,100544.03
2022-09-09T02:41:01.313Z,100545.64
2022-09-09T02:44:00.242Z,100549.78
2022-09-09T02:47:23.227Z,100546.60
2022-09-09T02:50:35.998Z,100554.28
2022-09-09T02:53:46.679Z,100559.31
2022-09-09T02:56:58.309Z,100560.38
2022-09-09T03:00:06.769Z,100563.52
2022-09-09T03:03:12.331Z,100572.42
2022-09-09T03:06:21.135Z,100572.39
2022-09-09T03:09:27.919Z,100573.16
2022-09-09T03:12:34.328Z,100578.23
2022-09-09T03:15:40.753Z,100576.09
2022-09-09T03:18:47.610Z,100576.81
2022-09-09T03:21:53.297Z,100571.49
2022-09-09T03:25:02.016Z,100576.20
2022-09-09T03:28:01.889Z,100577.32
2022-09-09T03:31:08.258Z,100587.28
2022-09-09T03:34:14.673Z,100590.31
2022-09-09T03:37:19.723Z,100594.78
2022-09-09T03:40:20.638Z,100593.84
2022-09-09T03:43:27.599Z,100592.22
2022-09-09T03:46:37.553Z,100596.60
2022-09-09T03:49:44.122Z,100593.11
2022-09-09T03:52:56.491Z,100586.23
2022-09-09T03:56:07.802Z,100583.41
2022-09-09T03:59:13.785Z,100583.38
2022-09-09T04:02:19.453Z,100588.01
2022-09-09T04:05:25.961Z,100582.98
2022-09-09T04:08:33.436Z,100573.72
2022-09-09T04:11:33.683Z,100575.64
2022-09-09T04:14:40.953Z,100579.47
2022-09-09T04:17:47.130Z,100583.14
2022-09-09T04:20:53.187Z,100582.89
2022-09-09T04:23:59.321Z,100589.62
2022-09-09T04:27:05.441Z,100595.20
2022-09-09T04:30:11.912Z,100591.72
2022-09-09T04:33:17.947Z,100601.16
2022-09-09T04:36:24.025Z,100598.71
2022-09-09T04:39:31.270Z,100598.94
2022-09-09T04:42:37.896Z,100596.03
2022-09-09T04:45:45.581Z,100591.77
2022-09-09T04:48:54.334Z,100590.70
2022-09-09T04:52:02.333Z,100591.70
2022-09-09T04:55:09.652Z,100589.70
2022-09-09T04:58:21.701Z,100583.81
2022-09-09T05:01:36.311Z,100583.98
2022-09-09T05:04:44.190Z,100579.11
2022-09-09T05:07:49.789Z,100583.02
2022-09-09T05:10:58.257Z,100591.82
2022-09-09T05:14:06.086Z,100588.33
2022-09-09T05:17:11.855Z,100585.06
2022-09-09T05:20:18.550Z,100584.42
2022-09-09T05:23:26.264Z,100586.47
2022-09-09T05:26:28.021Z,100584.05
2022-09-09T05:29:20.948Z,100579.42
2022-09-09T05:32:27.384Z,100576.34
2022-09-09T05:35:33.108Z,100574.53
2022-09-09T05:38:40.938Z,100579.09
2022-09-09T05:41:46.195Z,100579.13
2022-09-09T05:44:50.619Z,100587.02
2022-09-09T05:47:40.216Z,100583.03
2022-09-09T05:50:32.850Z,100591.77
2022-09-09T05:53:18.739Z,100587.67
2022-09-09T05:56:18.622Z,100595.28
2022-09-09T05:59:14.103Z,100593.15
2022-09-09T06:02:21.344Z,100590.31
2022-09-09T06:05:30.595Z,100595.38
2022-09-09T06:08:35.953Z,100594.96
2022-09-09T06:11:44.845Z,100602.05
2022-09-09T06:14:51.780Z,100603.84
2022-09-09T06:18:01.271Z,100612.73
2022-09-09T06:24:47.746Z,100616.02
2022-09-09T06:27:56.763Z,100614.24
2022-09-09T06:31:05.417Z,100619.39
2022-09-09T06:34:14.095Z,100619.54
2022-09-09T06:37:24.460Z,100622.68
2022-09-09T06:40:32.968Z,100624.19
2022-09-09T06:43:43.122Z,100625.96
2022-09-09T06:46:48.131Z,100634.19
2022-09-09T06:49:53.042Z,100631.56
2022-09-09T06:53:02.560Z,100639.79
2022-09-09T06:56:11.324Z,100641.66
2022-09-09T06:59:20.676Z,100637.33
2022-09-09T07:02:27.650Z,100637.49
2022-09-09T07:05:34.015Z,100637.11
2022-09-09T07:08:40.918Z,100638.92
2022-09-09T07:11:51.539Z,100637.53
2022-09-09T07:14:58.666Z,100643.80
2022-09-09T07:18:08.750Z,100643.06
2022-09-09T07:21:15.938Z,100642.17
2022-09-09T07:24:24.267Z,100649.44
2022-09-09T07:27:33.504Z,100648.27
2022-09-09T07:30:46.210Z,100652.80
2022-09-09T07:33:55.859Z,100651.67
2022-09-09T07:36:57.787Z,100644.17
2022-09-09T07:39:44.524Z,100648.88
2022-09-09T07:42:36.680Z,100646.08
2022-09-09T07:45:43.448Z,100647.27
2022-09-09T07:48:48.979Z,100643.19
2022-09-09T07:52:01.933Z,100642.22
2022-09-09T07:55:11.478Z,100648.65
2022-09-09T07:58:17.228Z,100640.30
2022-09-09T08:01:28.197Z,100651.45
2022-09-09T08:04:29.204Z,100652.16
2022-09-09T08:07:36.828Z,100649.64
2022-09-09T08:10:43.348Z,100656.64
2022-09-09T08:13:53.983Z,100652.56
2022-09-09T08:17:05.259Z,100646.36
2022-09-09T08:20:13.329Z,100648.70
2022-09-09T08:23:19.565Z,100627.86
2022-09-09T08:26:33.057Z,100633.25
2022-09-09T08:29:38.177Z,100631.05
2022-09-09T08:32:45.947Z,100622.83
2022-09-09T08:35:51.510Z,100623.84
2022-09-09T08:38:59.416Z,100617.76
2022-09-09T08:42:54.477Z,100612.84
2022-09-09T08:46:33.582Z,100611.16
2022-09-09T08:50:06.332Z,100615.40
2022-09-09T08:53:24.684Z,100600.83
2022-09-09T08:56:37.773Z,100607.55
2022-09-09T08:59:47.130Z,100605.41
2022-09-09T09:03:31.954Z,100601.27
2022-09-09T09:07:09.099Z,100608.02
2022-09-09T09:10:42.237Z,100602.59
2022-09-09T09:13:57.977Z,100608.23
2022-09-09T09:17:17.468Z,100616.56
2022-09-09T09:20:30.358Z,100610.96
2022-09-09T09:23:41.387Z,100614.25
2022-09-09T09:26:49.565Z,100614.96
2022-09-09T09:30:23.870Z,100613.72
2022-09-09T09:33:15.178Z,100614.61
2022-09-09T09:36:23.056Z,100612.41
2022-09-09T09:43:16.494Z,100618.07
2022-09-09T09:46:30.861Z,100621.39
2022-09-09T09:49:37.704Z,100614.22
2022-09-09T09:52:44.878Z,100615.12
2022-09-09T09:55:49.928Z,100605.94
2022-09-09T09:59:13.310Z,100608.03
2022-09-09T10:02:37.381Z,100603.37
2022-09-09T10:05:46.695Z,100603.20
2022-09-09T10:08:57.144Z,100596.80
2022-09-09T10:12:23.334Z,100599.61
2022-09-09T10:15:31.480Z,100611.64
2022-09-09T10:18:56.047Z,100613.31
2022-09-09T10:22:11.259Z,100613.92
2022-09-09T10:25:40.910Z,100610.23
2022-09-09T10:29:07.800Z,100604.35
2022-09-09T10:33:01.108Z,100612.26
2022-09-09T10:36:19.296Z,100610.27
2022-09-09T10:39:49.182Z,100603.58
2022-09-09T10:42:54.985Z,100605.56
2022-09-09T10:46:06.477Z,100597.13
2022-09-09T10:49:31.649Z,100606.95
2022-09-09T10:53:06.962Z,100606.66
2022-09-09T10:56:16.557Z,100605.50
2022-09-09T10:59:25.302Z,100595.73
2022-09-09T11:02:23.656Z,100591.00
2022-09-09T11:05:41.328Z,100593.19
2022-09-09T11:08:36.669Z,100595.20
2022-09-09T11:11:47.226Z,100604.97
2022-09-09T11:15:18.885Z,100602.98
2022-09-09T11:18:37.330Z,100604.92
2022-09-09T11:21:49.712Z,100599.59
2022-09-09T11:25:02.596Z,100595.68
2022-09-09T11:28:37.256Z,100599.63
2022-09-09T11:31:55.423Z,100590.86
2022-09-09T11:35:09.886Z,100594.95
2022-09-09T11:38:40.571Z,100586.42
2022-09-09T11:41:53.133Z,100589.22
2022-09-09T11:45:03.001Z,100586.65
2022-09-09T11:48:10.674Z,100576.08
2022-09-09T11:51:26.006Z,100581.36
2022-09-09T11:54:49.391Z,100582.90
2022-09-09T11:57:55.291Z,100571.41
2022-09-09T12:01:02.829Z,100571.05
2022-09-09T12:04:28.066Z,100573.38
2022-09-09T12:07:53.015Z,100572.59
2022-09-09T12:11:03.189Z,100575.14
2022-09-09T12:14:11.491Z,100578.25
2022-09-09T12:17:38.180Z,100573.48
2022-09-09T12:20:54.570Z,100574.41
2022-09-09T12:24:10.225Z,100571.63
2022-09-09T12:27:40.503Z,100573.83
2022-09-09T12:30:56.068Z,100566.81
2022-09-09T12:34:01.688Z,100564.60
2022-09-09T12:37:11.414Z,100561.21
2022-09-09T12:40:20.798Z,100559.80
2022-09-09T12:43:37.205Z,100565.75
2022-09-09T12:46:54.549Z,100571.61
2022-09-09T12:49:59.007Z,100576.45
2022-09-09T12:53:06.474Z,100571.16
2022-09-09T12:56:24.094Z,100577.73
2022-09-09T12:59:41.626Z,100569.02
2022-09-09T13:02:48.172Z,100576.34
2022-09-09T13:05:54.218Z,100575.70
2022-09-09T13:08:59.555Z,100577.58
2022-09-09T13:12:08.485Z,100580.53
2022-09-09T13:15:15.178Z,100582.06
2022-09-09T13:18:24.815Z,100583.40
2022-09-09T13:21:30.934Z,100583.99
2022-09-09T13:24:51.591Z,100582.62
2022-09-09T13:28:00.361Z,100581.12
2022-09-09T13:31:23.926Z,100575.74
2022-09-09T13:34:43.047Z,100589.43
2022-09-09T13:37:53.684Z,100591.25
2022-09-09T13:41:14.937Z,100599.76
2022-09-09T13:44:21.356Z,100603.40
2022-09-09T13:47:34.910Z,100596.13
2022-09-09T13:50:44.792Z,100603.40
2022-09-09T13:53:49.881Z,100601.16
2022-09-09T13:56:57.869Z,100598.08
2022-09-09T14:00:05.476Z,100598.08
2022-09-09T14:03:10.717Z,100590.55
2022-09-09T14:06:09.231Z,100593.04
2022-09-09T14:09:14.546Z,100605.25
2022-09-09T14:12:19.508Z,100602.69
2022-09-09T14:15:28.244Z,100612.25
2022-09-09T14:18:33.782Z,100601.48
2022-09-09T14:21:40.561Z,100597.53
2022-09-09T14:24:45.267Z,100604.72
2022-09-09T14:27:50.735Z,100615.55
2022-09-09T14:30:56.574Z,100613.41
2022-09-09T14:34:02.829Z,100610.89
2022-09-09T14:37:03.061Z,100616.58
2022-09-09T14:40:08.449Z,100618.67
2022-09-09T14:43:14.674Z,100617.84
2022-09-09T14:46:26.445Z,100617.09
2022-09-09T14:49:32.166Z,100618.40
2022-09-09T14:52:37.247Z,100615.69
2022-09-09T14:55:42.966Z,100621.56
2022-09-09T14:58:48.676Z,100622.86
2022-09-09T15:01:54.024Z,100629.03
2022-09-09T15:05:00.163Z,100633.11
2022-09-09T15:08:06.719Z,100630.37
2022-09-09T15:11:18.575Z,100633.62
2022-09-09T15:14:26.017Z,100641.38
2022-09-09T15:17:33.263Z,100644.09
2022-09-09T15:20:40.391Z,100647.16
2022-09-09T15:23:47.428Z,100644.08
2022-09-09T15:26:53.638Z,100650.89
2022-09-09T15:29:59.579Z,100650.61
2022-09-09T15:33:09.640Z,100649.08
2022-09-09T15:36:13.278Z,100644.27
2022-09-09T15:39:23.262Z,100651.31
2022-09-09T15:42:28.858Z,100647.45
2022-09-09T15:45:34.916Z,100652.72
2022-09-09T15:48:47.315Z,100651.45
2022-09-09T15:51:54.485Z,100654.91
2022-09-09T15:54:59.923Z,100660.64
2022-09-09T15:58:05.768Z,100665.74
2022-09-09T16:01:12.752Z,100670.67
2022-09-09T16:04:18.101Z,100667.44
2022-09-09T16:07:23.993Z,100673.86
2022-09-09T16:10:30.318Z,100678.45
2022-09-09T16:13:36.614Z,100675.76
2022-09-09T16:16:43.301Z,100688.39
2022-09-09T16:19:48.788Z,100688.02
2022-09-09T16:22:53.832Z,100694.41
2022-09-09T16:26:05.551Z,100694.30
2022-09-09T16:29:07.869Z,100697.05
2022-09-09T16:32:14.089Z,100698.77
2022-09-09T16:35:20.474Z,100704.48
2022-09-09T16:38:25.761Z,100707.09
2022-09-09T16:41:31.520Z,100705.41
2022-09-09T16:44:37.929Z,100710.41
2022-09-09T16:47:44.423Z,100715.09
2022-09-09T16:50:49.799Z,100717.47
2022-09-09T16:53:55.404Z,100718.50
2022-09-09T16:57:03.817Z,100722.44
2022-09-09T17:00:08.899Z,100728.45
2022-09-09T17:03:13.961Z,100732.13
2022-09-09T17:06:24.975Z,100731.79
2022-09-09T17:09:31.761Z,100736.19
2022-09-09T17:12:42.006Z,100742.59
2022-09-09T17:15:45.022Z,100736.98
2022-09-09T17:18:51.539Z,100735.47
2022-09-09T17:22:16.292Z,100738.28
2022-09-09T17:25:05.475Z,100745.08
2022-09-09T17:28:12.522Z,100747.89
2022-09-09T17:31:19.594Z,100749.11
2022-09-09T17:34:25.769Z,100746.70
2022-09-09T17:37:31.078Z,100744.97
2022-09-09T17:40:36.588Z,100748.64
2022-09-09T17:43:35.194Z,100746.52
2022-09-09T17:46:45.077Z,100750.55
2022-09-09T17:49:50.144Z,100752.11
2022-09-09T17:52:56.811Z,100747.89
2022-09-09T17:56:03.874Z,100757.39
2022-09-09T17:59:10.830Z,100761.53
2022-09-09T18:02:17.218Z,100756.00
2022-09-09T18:05:23.688Z,100765.00
2022-09-09T18:08:33.504Z,100767.23
2022-09-09T18:11:40.069Z,100757.97
2022-09-09T18:14:46.826Z,100766.96
2022-09-09T18:17:52.061Z,100766.48
2022-09-09T18:21:00.433Z,100758.84
2022-09-09T18:24:05.508Z,100757.84
2022-09-09T18:27:12.050Z,100749.66
2022-09-09T18:30:18.317Z,100757.55
2022-09-09T18:33:17.152Z,100748.42
2022-09-09T18:36:25.496Z,100758.84
2022-09-09T18:39:31.680Z,100752.22
2022-09-09T18:42:37.294Z,100759.77
2022-09-09T18:45:43.153Z,100762.61
2022-09-09T18:48:50.817Z,100762.67
2022-09-09T18:51:59.417Z,100776.95
2022-09-09T18:55:04.922Z,100774.41
2022-09-09T18:58:12.028Z,100768.68
2022-09-09T19:01:18.114Z,100766.27
2022-09-09T19:04:26.305Z,100774.14
2022-09-09T19:07:32.397Z,100770.25
2022-09-09T19:10:40.992Z,100771.48
2022-09-09T19:13:47.344Z,100767.93
2022-09-09T19:16:54.951Z,100775.28
2022-09-09T19:20:02.511Z,100770.52
2022-09-09T19:23:07.524Z,100767.33
2022-09-09T19:26:15.548Z,100774.03
2022-09-09T19:29:23.251Z,100776.13
2022-09-09T19:32:52.137Z,100769.77
2022-09-09T19:35:35.801Z,100776.98
2022-09-09T19:38:42.376Z,100784.22
2022-09-09T19:41:48.520Z,100786.32
2022-09-09T19:44:53.103Z,100786.63
2022-09-09T19:47:58.866Z,100790.14
2022-09-09T19:51:04.382Z,100799.92
2022-09-09T19:54:05.594Z,100783.88
2022-09-09T19:57:04.537Z,100791.12
2022-09-09T20:00:10.680Z,100799.86
2022-09-09T20:03:19.665Z,100793.25
2022-09-09T20:06:24.341Z,100789.77
2022-09-09T20:09:34.027Z,100782.45
2022-09-09T20:12:39.863Z,100777.64
2022-09-09T20:15:45.219Z,100781.58
2022-09-09T20:18:54.124Z,100787.77
2022-09-09T20:22:01.102Z,100794.62
2022-09-09T20:25:08.174Z,100792.83
2022-09-09T20:28:13.328Z,100803.80
2022-09-09T20:31:29.009Z,100802.23
2022-09-09T20:34:36.485Z,100805.95
2022-09-09T20:37:41.420Z,100812.97
2022-09-09T20:40:49.110Z,100825.86
2022-09-09T20:43:56.440Z,100808.81
2022-09-09T20:47:05.154Z,100817.67
2022-09-09T20:50:09.956Z,100815.53
2022-09-09T20:55:49.053Z,100818.19
2022-09-09T20:58:54.838Z,100818.19
2022-09-09T21:02:01.236Z,100826.00
2022-09-09T21:05:07.781Z,100837.32
2022-09-09T21:08:16.558Z,100842.45
2022-09-09T21:11:24.249Z,100845.48
2022-09-09T21:14:29.894Z,100840.33
2022-09-09T21:17:36.039Z,100855.19
2022-09-09T21:20:42.977Z,100855.59
2022-09-09T21:23:48.653Z,100849.52
2022-09-09T21:26:49.853Z,100842.03
2022-09-09T21:29:56.470Z,100847.64
2022-09-09T21:33:02.800Z,100839.01
2022-09-09T21:36:07.917Z,100859.09
2022-09-09T21:39:13.584Z,100859.64
2022-09-09T21:42:21.396Z,100858.60
2022-09-09T21:45:26.968Z,100867.77
2022-09-09T21:48:34.591Z,100866.23
2022-09-09T21:51:40.337Z,100864.89
2022-09-09T21:54:48.335Z,100860.19
2022-09-09T21:57:54.798Z,100858.34
2022-09-09T22:01:01.681Z,100852.91
2022-09-09T22:04:06.922Z,100858.38
2022-09-09T22:07:13.541Z,100856.65
2022-09-09T22:10:20.174Z,100868.73
2022-09-09T22:13:26.562Z,100863.50
2022-09-09T22:16:34.264Z,100866.70
2022-09-09T22:19:41.534Z,100876.54
2022-09-09T22:22:46.382Z,100870.34
2022-09-09T22:25:53.627Z,100864.04
2022-09-09T22:29:00.907Z,100875.86
2022-09-09T22:32:05.894Z,100875.47
2022-09-09T22:35:10.318Z,100867.04
2022-09-09T22:38:15.726Z,100868.65
2022-09-09T22:41:14.653Z,100860.48
2022-09-09T22:44:00.791Z,100865.98
2022-09-09T22:46:53.630Z,100869.84
2022-09-09T22:49:52.824Z,100853.95
2022-09-09T22:52:59.033Z,100868.34
2022-09-09T22:56:14.463Z,100863.45
2022-09-09T22:59:20.016Z,100871.02
2022-09-09T23:02:27.372Z,100867.83
2022-09-09T23:05:36.161Z,100869.44
2022-09-09T23:08:48.134Z,100872.44
2022-09-09T23:11:55.104Z,100870.92
2022-09-09T23:15:04.075Z,100876.67
2022-09-09T23:18:03.656Z,100880.30
2022-09-09T23:20:56.837Z,100877.83
2022-09-09T23:24:02.513Z,100884.84
2022-09-09T23:27:07.974Z,100890.70
2022-09-09T23:30:14.411Z,100896.14
2022-09-09T23:33:19.550Z,100897.64
2022-09-09T23:36:27.357Z,100902.30
2022-09-09T23:39:32.504Z,100897.27
2022-09-09T23:42:40.151Z,100889.43
2022-09-09T23:45:45.505Z,100891.21
2022-09-09T23:48:51.308Z,100884.87
2022-09-09T23:51:57.211Z,100880.35
2022-09-09T23:54:57.750Z,100876.42
2022-09-09T23:58:03.194Z,100891.44
